createdAt,value
2019-03-06T00:01:06.837Z,98.10
2019-03-06T00:03:35.867Z,98.00
2019-03-06T00:06:05.263Z,97.90
2019-03-06T00:08:34.657Z,98.00
2019-03-06T00:11:03.638Z,98.00
2019-03-06T00:13:33.167Z,98.00
2019-03-06T00:16:02.203Z,98.30
2019-03-06T00:18:31.533Z,98.20
2019-03-06T00:21:00.581Z,98.30
2019-03-06T00:23:29.983Z,98.50
2019-03-06T00:25:59.842Z,98.60
2019-03-06T00:28:29.572Z,98.70
2019-03-06T00:30:58.620Z,98.80
2019-03-06T00:33:27.934Z,99.10
2019-03-06T00:35:57.196Z,99.10
2019-03-06T00:38:26.663Z,99.40
2019-03-06T00:41:04.262Z,99.50
2019-03-06T00:43:33.677Z,99.50
2019-03-06T00:46:03.116Z,99.90
2019-03-06T00:48:33.120Z,99.90
2019-03-06T00:51:02.326Z,99.90
2019-03-06T00:53:31.373Z,99.90
2019-03-06T00:56:01.304Z,99.90
2019-03-06T00:58:30.458Z,99.90
2019-03-06T01:00:59.774Z,99.90
2019-03-06T01:03:28.817Z,99.90
2019-03-06T01:05:57.917Z,99.90
2019-03-06T01:08:27.138Z,99.90
2019-03-06T01:10:56.186Z,99.90
2019-03-06T01:13:25.276Z,99.90
2019-03-06T01:15:54.610Z,99.90
2019-03-06T01:18:29.912Z,99.90
2019-03-06T01:20:58.977Z,99.90
2019-03-06T01:23:28.352Z,99.90
2019-03-06T01:25:57.427Z,99.90
2019-03-06T01:28:26.474Z,99.90
2019-03-06T01:30:56.277Z,99.90
2019-03-06T01:33:50.578Z,99.90
2019-03-06T01:36:39.739Z,99.90
2019-03-06T01:39:31.374Z,99.90
2019-03-06T01:42:13.363Z,99.90
2019-03-06T01:44:46.071Z,99.90
2019-03-06T01:47:15.551Z,99.90
2019-03-06T01:49:44.875Z,99.90
2019-03-06T01:52:14.189Z,99.90
2019-03-06T01:54:43.589Z,99.90
2019-03-06T01:57:12.664Z,99.90
2019-03-06T01:59:41.747Z,99.90
2019-03-06T02:02:11.268Z,99.90
2019-03-06T02:04:40.159Z,99.90
2019-03-06T02:07:10.016Z,99.90
2019-03-06T02:09:39.804Z,99.90
2019-03-06T02:12:09.184Z,99.90
2019-03-06T02:14:38.130Z,99.90
2019-03-06T02:17:07.144Z,99.90
2019-03-06T02:19:36.792Z,99.90
2019-03-06T02:22:05.924Z,99.90
2019-03-06T02:24:35.297Z,99.90
2019-03-06T02:27:04.723Z,99.90
2019-03-06T02:29:33.686Z,99.90
2019-03-06T02:32:03.075Z,99.90
2019-03-06T02:34:32.535Z,99.90
2019-03-06T02:37:01.579Z,99.90
2019-03-06T02:39:30.967Z,99.90
2019-03-06T02:42:00.311Z,99.90
2019-03-06T02:44:29.410Z,99.90
2019-03-06T02:46:58.750Z,99.90
2019-03-06T02:49:28.316Z,99.90
2019-03-06T02:51:57.243Z,99.90
2019-03-06T02:54:26.861Z,99.90
2019-03-06T02:56:55.936Z,99.90
2019-03-06T02:59:43.942Z,99.90
2019-03-06T03:02:19.210Z,99.90
2019-03-06T03:05:07.275Z,99.90
2019-03-06T03:07:36.362Z,99.90
2019-03-06T03:10:05.998Z,99.90
2019-03-06T03:12:35.083Z,99.90
2019-03-06T03:15:04.510Z,99.90
2019-03-06T03:17:34.667Z,99.90
2019-03-06T03:20:04.216Z,99.90
2019-03-06T03:22:33.256Z,99.90
2019-03-06T03:25:02.345Z,99.90
2019-03-06T03:27:31.311Z,99.90
2019-03-06T03:30:00.778Z,99.90
2019-03-06T03:32:29.937Z,99.90
2019-03-06T03:34:58.816Z,99.90
2019-03-06T03:37:27.924Z,99.90
2019-03-06T03:39:56.971Z,99.90
2019-03-06T03:42:26.372Z,99.90
2019-03-06T03:44:55.460Z,99.90
2019-03-06T03:47:24.445Z,99.90
2019-03-06T03:49:53.650Z,99.90
2019-03-06T03:52:22.994Z,99.90
2019-03-06T03:54:52.261Z,99.90
2019-03-06T03:57:21.635Z,99.90
2019-03-06T03:59:51.483Z,99.90
2019-03-06T04:02:20.772Z,99.90
2019-03-06T04:04:50.070Z,99.90
2019-03-06T04:07:19.140Z,99.90
2019-03-06T04:09:48.278Z,99.90
2019-03-06T04:12:17.282Z,99.90
2019-03-06T04:14:46.362Z,99.90
2019-03-06T04:17:15.772Z,99.90
2019-03-06T04:19:44.860Z,99.90
2019-03-06T04:22:14.204Z,99.90
2019-03-06T04:24:43.639Z,99.90
2019-03-06T04:27:12.854Z,99.90
2019-03-06T04:29:41.830Z,99.90
2019-03-06T04:32:10.722Z,99.90
2019-03-06T04:34:39.857Z,99.90
2019-03-06T04:37:08.897Z,99.90
2019-03-06T04:39:37.888Z,99.90
2019-03-06T04:42:07.255Z,99.90
2019-03-06T04:44:36.351Z,99.90
2019-03-06T04:47:06.013Z,99.90
2019-03-06T04:49:35.941Z,99.90
2019-03-06T04:52:04.949Z,99.90
2019-03-06T04:54:33.958Z,99.90
2019-03-06T04:57:03.223Z,99.90
2019-03-06T04:59:32.269Z,99.90
2019-03-06T05:02:01.939Z,99.90
2019-03-06T05:04:30.938Z,99.90
2019-03-06T05:07:00.517Z,99.90
2019-03-06T05:09:29.620Z,99.90
2019-03-06T05:11:59.038Z,99.90
2019-03-06T05:14:28.402Z,99.90
2019-03-06T05:17:28.817Z,99.90
2019-03-06T05:19:58.150Z,99.90
2019-03-06T05:22:27.314Z,99.90
2019-03-06T05:24:56.579Z,99.90
2019-03-06T05:27:25.973Z,99.90
2019-03-06T05:29:55.254Z,99.90
2019-03-06T05:32:41.866Z,99.90
2019-03-06T05:35:23.870Z,99.90
2019-03-06T05:38:15.321Z,99.90
2019-03-06T05:40:44.338Z,99.90
2019-03-06T05:43:13.702Z,99.90
2019-03-06T05:45:43.105Z,99.90
2019-03-06T05:48:12.478Z,99.90
2019-03-06T05:50:41.879Z,99.90
2019-03-06T05:53:10.890Z,99.90
2019-03-06T05:55:39.922Z,99.90
2019-03-06T05:58:09.250Z,99.90
2019-03-06T06:00:38.265Z,99.90
2019-03-06T06:03:07.239Z,99.90
2019-03-06T06:05:36.539Z,99.90
2019-03-06T06:08:05.561Z,99.90
2019-03-06T06:10:34.928Z,99.90
2019-03-06T06:13:04.001Z,99.90
2019-03-06T06:15:33.386Z,99.90
2019-03-06T06:18:02.624Z,99.90
2019-03-06T06:20:31.674Z,99.90
2019-03-06T06:23:12.024Z,99.90
2019-03-06T06:25:41.051Z,99.90
2019-03-06T06:28:10.115Z,99.90
2019-03-06T06:30:39.511Z,99.90
2019-03-06T06:33:08.844Z,99.90
2019-03-06T06:35:37.822Z,99.90
2019-03-06T06:38:07.209Z,99.90
2019-03-06T06:40:36.245Z,99.90
2019-03-06T06:43:05.211Z,99.90
2019-03-06T06:45:34.524Z,99.90
2019-03-06T06:48:28.698Z,99.90
2019-03-06T06:51:33.876Z,99.90
2019-03-06T06:54:14.285Z,99.90
2019-03-06T06:57:20.724Z,99.90
2019-03-06T07:00:49.054Z,99.90
2019-03-06T07:04:23.450Z,99.90
2019-03-06T07:07:12.132Z,99.90
2019-03-06T07:09:52.939Z,99.90
2019-03-06T07:12:31.594Z,99.90
2019-03-06T07:15:31.734Z,99.90
2019-03-06T07:18:19.529Z,99.90
2019-03-06T07:21:09.433Z,99.90
2019-03-06T07:24:06.708Z,99.90
2019-03-06T07:26:53.712Z,99.90
2019-03-06T07:29:38.700Z,99.90
2019-03-06T07:32:21.080Z,99.90
2019-03-06T07:35:57.480Z,99.90
2019-03-06T07:38:27.095Z,99.90
2019-03-06T07:41:15.275Z,99.90
2019-03-06T07:43:52.844Z,99.90
2019-03-06T07:46:40.931Z,99.90
2019-03-06T07:49:31.796Z,99.90
2019-03-06T07:52:12.103Z,99.90
2019-03-06T07:54:50.832Z,99.80
2019-03-06T07:57:28.114Z,99.80
2019-03-06T07:59:57.921Z,99.60
2019-03-06T08:02:33.526Z,99.10
2019-03-06T08:05:02.878Z,98.70
2019-03-06T08:07:31.884Z,98.20
2019-03-06T08:10:02.457Z,98.10
2019-03-06T08:12:56.498Z,97.70
2019-03-06T08:16:00.208Z,97.70
2019-03-06T08:18:50.342Z,97.80
2019-03-06T08:21:41.782Z,97.80
2019-03-06T08:24:30.670Z,97.70
2019-03-06T08:27:00.356Z,97.70
2019-03-06T08:29:29.689Z,97.60
2019-03-06T08:32:02.431Z,97.50
2019-03-06T08:34:32.074Z,97.20
2019-03-06T08:37:01.413Z,97.20
2019-03-06T08:39:30.466Z,97.00
2019-03-06T08:41:59.486Z,96.60
2019-03-06T08:44:28.495Z,96.60
2019-03-06T08:47:32.384Z,96.20
2019-03-06T08:50:09.271Z,95.90
2019-03-06T08:55:24.174Z,95.20
2019-03-06T08:58:27.688Z,95.00
2019-03-06T09:01:25.947Z,94.50
2019-03-06T09:04:29.175Z,94.40
2019-03-06T09:07:20.183Z,94.00
2019-03-06T09:09:57.791Z,93.40
2019-03-06T09:12:42.110Z,93.10
2019-03-06T09:15:43.243Z,92.50
2019-03-06T09:18:40.432Z,92.20
2019-03-06T09:21:28.667Z,91.50
2019-03-06T09:24:26.459Z,91.50
2019-03-06T09:27:07.758Z,91.40
2019-03-06T09:29:54.841Z,91.10
2019-03-06T09:32:41.566Z,91.20
2019-03-06T09:35:36.044Z,91.30
2019-03-06T09:38:15.714Z,90.80
2019-03-06T09:41:02.955Z,91.00
2019-03-06T09:44:09.532Z,90.80
2019-03-06T09:47:10.380Z,90.80
2019-03-06T09:50:07.888Z,91.00
2019-03-06T09:52:47.436Z,90.60
2019-03-06T09:55:34.487Z,90.60
2019-03-06T09:58:22.909Z,90.40
2019-03-06T10:01:05.970Z,90.30
2019-03-06T10:03:54.306Z,90.20
2019-03-06T10:06:45.804Z,90.20
2019-03-06T10:09:46.248Z,89.90
2019-03-06T10:12:28.546Z,89.20
2019-03-06T10:15:11.207Z,88.60
2019-03-06T10:17:44.976Z,88.90
2019-03-06T10:20:24.903Z,88.20
2019-03-06T10:22:49.001Z,86.90
2019-03-06T10:25:18.480Z,87.20
2019-03-06T10:27:48.094Z,87.30
2019-03-06T10:30:18.777Z,87.10
2019-03-06T10:32:48.247Z,86.80
2019-03-06T10:35:18.213Z,85.70
2019-03-06T10:37:47.545Z,85.80
2019-03-06T10:40:17.764Z,85.20
2019-03-06T10:42:46.937Z,84.80
2019-03-06T10:45:16.576Z,84.70
2019-03-06T10:47:46.220Z,83.90
2019-03-06T10:50:26.011Z,82.10
2019-03-06T10:52:48.234Z,83.00
2019-03-06T10:55:17.714Z,81.90
2019-03-06T10:57:46.890Z,82.00
2019-03-06T11:00:20.582Z,82.30
2019-03-06T11:02:50.810Z,82.60
2019-03-06T11:05:25.428Z,82.30
2019-03-06T11:07:55.672Z,81.90
2019-03-06T11:10:26.063Z,81.80
2019-03-06T11:12:57.055Z,80.60
2019-03-06T11:15:26.696Z,81.40
2019-03-06T11:17:55.879Z,81.30
2019-03-06T11:20:28.219Z,81.50
2019-03-06T11:22:59.111Z,81.60
2019-03-06T11:25:29.196Z,82.10
2019-03-06T11:27:58.404Z,81.40
2019-03-06T11:30:32.925Z,81.50
2019-03-06T11:33:02.509Z,81.80
2019-03-06T11:35:34.112Z,81.20
2019-03-06T11:38:03.773Z,80.60
2019-03-06T11:40:34.896Z,80.20
2019-03-06T11:43:04.263Z,79.50
2019-03-06T11:45:33.412Z,80.00
2019-03-06T11:48:02.802Z,78.80
2019-03-06T11:50:40.394Z,79.60
2019-03-06T11:53:03.290Z,78.80
2019-03-06T11:55:32.438Z,78.40
2019-03-06T11:58:01.507Z,79.00
2019-03-06T12:00:37.362Z,79.30
2019-03-06T12:03:06.948Z,79.40
2019-03-06T12:05:36.849Z,80.40
2019-03-06T12:08:09.272Z,80.00
2019-03-06T12:10:38.412Z,78.50
2019-03-06T12:13:10.285Z,77.70
2019-03-06T12:15:40.575Z,77.80
2019-03-06T12:18:09.784Z,76.30
2019-03-06T12:20:39.064Z,77.30
2019-03-06T12:23:08.526Z,77.10
2019-03-06T12:25:38.283Z,77.40
2019-03-06T12:28:08.650Z,78.60
2019-03-06T12:30:39.467Z,79.70
2019-03-06T12:33:09.344Z,79.10
2019-03-06T12:35:39.412Z,77.80
2019-03-06T12:38:08.492Z,76.50
2019-03-06T12:40:37.861Z,77.30
2019-03-06T12:43:06.993Z,77.30
2019-03-06T12:45:37.689Z,78.00
2019-03-06T12:48:09.459Z,78.00
2019-03-06T12:50:38.585Z,79.10
2019-03-06T12:53:07.747Z,79.10
2019-03-06T12:55:37.009Z,79.50
2019-03-06T12:58:06.265Z,80.40
2019-03-06T13:00:36.020Z,80.90
2019-03-06T13:03:05.390Z,82.50
2019-03-06T13:05:34.497Z,82.80
2019-03-06T13:08:04.101Z,83.70
2019-03-06T13:10:33.237Z,84.50
2019-03-06T13:13:02.346Z,85.20
2019-03-06T13:15:32.140Z,86.20
2019-03-06T13:18:01.112Z,86.90
2019-03-06T13:20:30.275Z,85.80
2019-03-06T13:22:59.875Z,86.00
2019-03-06T13:25:29.268Z,85.60
2019-03-06T13:27:58.699Z,84.50
2019-03-06T13:30:28.307Z,83.90
2019-03-06T13:33:13.750Z,83.70
2019-03-06T13:35:42.967Z,82.80
2019-03-06T13:38:12.448Z,82.50
2019-03-06T13:40:42.299Z,82.70
2019-03-06T13:43:11.779Z,82.30
2019-03-06T13:45:41.480Z,81.40
2019-03-06T13:48:10.581Z,81.30
2019-03-06T13:50:39.929Z,81.00
2019-03-06T13:53:08.985Z,80.90
2019-03-06T13:55:38.527Z,80.90
2019-03-06T13:58:07.694Z,80.90
2019-03-06T14:00:37.956Z,81.20
2019-03-06T14:03:07.034Z,80.90
2019-03-06T14:05:36.457Z,81.20
2019-03-06T14:08:06.703Z,81.50
2019-03-06T14:10:36.156Z,81.60
2019-03-06T14:13:05.383Z,81.20
2019-03-06T14:15:34.469Z,80.90
2019-03-06T14:18:04.098Z,80.90
2019-03-06T14:20:34.486Z,80.80
2019-03-06T14:23:03.843Z,81.30
2019-03-06T14:25:33.569Z,80.90
2019-03-06T14:28:03.751Z,80.70
2019-03-06T14:30:32.916Z,80.90
2019-03-06T14:33:02.041Z,80.90
2019-03-06T14:35:31.587Z,80.80
2019-03-06T14:38:01.001Z,80.90
2019-03-06T14:40:31.085Z,80.90
2019-03-06T14:43:01.307Z,81.00
2019-03-06T14:45:30.408Z,81.00
2019-03-06T14:47:59.605Z,81.30
2019-03-06T14:50:28.911Z,81.80
2019-03-06T14:52:58.415Z,81.80
2019-03-06T14:55:27.556Z,81.40
2019-03-06T14:57:57.012Z,81.30
2019-03-06T15:00:26.487Z,81.30
2019-03-06T15:02:55.552Z,81.30
2019-03-06T15:05:25.400Z,81.40
2019-03-06T15:07:54.793Z,81.30
2019-03-06T15:10:24.189Z,81.40
2019-03-06T15:12:53.833Z,81.50
2019-03-06T15:15:22.987Z,81.60
2019-03-06T15:17:52.222Z,81.70
2019-03-06T15:20:21.436Z,81.60
2019-03-06T15:22:50.755Z,81.30
2019-03-06T15:25:21.028Z,81.10
2019-03-06T15:27:50.223Z,81.20
2019-03-06T15:30:20.347Z,80.70
2019-03-06T15:32:50.130Z,80.60
2019-03-06T15:35:19.606Z,80.70
2019-03-06T15:37:48.843Z,80.70
2019-03-06T15:40:22.383Z,80.50
2019-03-06T15:42:51.547Z,80.00
2019-03-06T15:45:23.513Z,79.70
2019-03-06T15:47:52.703Z,80.00
2019-03-06T15:50:21.824Z,80.00
2019-03-06T15:52:50.975Z,80.00
2019-03-06T15:55:24.291Z,80.00
2019-03-06T15:57:53.403Z,80.20
2019-03-06T16:00:32.250Z,80.90
2019-03-06T16:03:01.560Z,81.10
2019-03-06T16:05:30.836Z,81.60
2019-03-06T16:08:00.193Z,82.00
2019-03-06T16:10:29.745Z,82.30
2019-03-06T16:12:59.129Z,83.50
2019-03-06T16:15:28.946Z,82.90
2019-03-06T16:17:59.419Z,83.30
2019-03-06T16:20:28.857Z,83.30
2019-03-06T16:22:58.287Z,83.70
2019-03-06T16:25:36.306Z,83.90
2019-03-06T16:27:58.987Z,84.20
2019-03-06T16:30:29.802Z,84.20
2019-03-06T16:32:59.375Z,84.40
2019-03-06T16:35:29.110Z,84.50
2019-03-06T16:37:58.437Z,84.70
2019-03-06T16:40:27.981Z,85.00
2019-03-06T16:42:57.731Z,85.30
2019-03-06T16:45:27.244Z,85.30
2019-03-06T16:47:56.692Z,85.30
2019-03-06T16:50:26.062Z,85.30
2019-03-06T16:52:55.589Z,85.60
2019-03-06T16:55:25.362Z,85.70
2019-03-06T16:57:54.827Z,86.00
2019-03-06T17:00:29.453Z,86.20
2019-03-06T17:02:59.516Z,86.40
2019-03-06T17:05:28.844Z,87.30
2019-03-06T17:07:58.616Z,86.90
2019-03-06T17:10:28.248Z,87.10
2019-03-06T17:12:57.485Z,87.30
2019-03-06T17:15:27.364Z,87.40
2019-03-06T17:17:57.097Z,87.70
2019-03-06T17:20:27.419Z,88.00
2019-03-06T17:22:57.410Z,88.30
2019-03-06T17:25:28.392Z,88.40
2019-03-06T17:27:57.887Z,88.80
2019-03-06T17:30:27.402Z,89.20
2019-03-06T17:33:04.540Z,89.50
2019-03-06T17:35:34.471Z,89.70
2019-03-06T17:38:04.425Z,90.00
2019-03-06T17:40:33.900Z,90.20
2019-03-06T17:43:03.009Z,90.40
2019-03-06T17:45:32.033Z,90.70
2019-03-06T17:48:01.454Z,90.80
2019-03-06T17:50:30.878Z,91.00
2019-03-06T17:53:00.287Z,91.20
2019-03-06T17:55:29.763Z,91.40
2019-03-06T17:57:59.145Z,91.70
2019-03-06T18:00:43.622Z,91.90
2019-03-06T18:03:15.309Z,92.00
2019-03-06T18:05:44.742Z,92.30
2019-03-06T18:08:13.821Z,92.50
2019-03-06T18:10:43.669Z,92.70
2019-03-06T18:13:12.950Z,92.90
2019-03-06T18:15:44.325Z,93.00
2019-03-06T18:18:13.245Z,93.20
2019-03-06T18:20:42.407Z,93.30
2019-03-06T18:23:11.849Z,93.50
2019-03-06T18:25:41.023Z,93.80
2019-03-06T18:28:10.196Z,94.10
2019-03-06T18:30:39.347Z,94.30
2019-03-06T18:33:08.462Z,94.50
2019-03-06T18:35:37.994Z,94.60
2019-03-06T18:38:07.117Z,94.80
2019-03-06T18:40:36.238Z,95.00
2019-03-06T18:43:06.318Z,95.00
2019-03-06T18:45:35.563Z,95.10
2019-03-06T18:48:05.006Z,95.20
2019-03-06T18:50:34.393Z,95.00
2019-03-06T18:53:03.515Z,95.30
2019-03-06T18:55:32.916Z,95.40
2019-03-06T18:58:02.427Z,95.80
2019-03-06T19:00:33.511Z,95.50
2019-03-06T19:03:02.569Z,95.60
2019-03-06T19:05:31.983Z,95.70
2019-03-06T19:08:01.612Z,95.60
2019-03-06T19:10:30.675Z,95.70
2019-03-06T19:12:59.800Z,95.70
2019-03-06T19:15:29.491Z,95.60
2019-03-06T19:17:58.790Z,95.70
2019-03-06T19:20:28.066Z,95.60
2019-03-06T19:22:57.105Z,95.60
2019-03-06T19:25:26.692Z,95.60
2019-03-06T19:27:55.826Z,95.70
2019-03-06T19:30:25.038Z,95.70
2019-03-06T19:32:54.260Z,95.80
2019-03-06T19:35:23.291Z,95.90
2019-03-06T19:37:52.408Z,95.90
2019-03-06T19:40:22.212Z,95.90
2019-03-06T19:42:51.526Z,96.10
2019-03-06T19:45:23.092Z,96.00
2019-03-06T19:47:52.710Z,96.00
2019-03-06T19:50:22.927Z,96.00
2019-03-06T19:52:53.188Z,96.30
2019-03-06T19:55:22.881Z,96.30
2019-03-06T19:58:02.751Z,96.20
2019-03-06T20:00:33.267Z,96.10
2019-03-06T20:03:02.689Z,95.90
2019-03-06T20:05:34.674Z,95.80
2019-03-06T20:08:07.384Z,95.60
2019-03-06T20:10:37.635Z,95.60
2019-03-06T20:13:07.299Z,95.50
2019-03-06T20:15:37.203Z,95.60
2019-03-06T20:18:06.305Z,95.50
2019-03-06T20:20:35.428Z,95.60
2019-03-06T20:23:04.670Z,95.50
2019-03-06T20:25:34.348Z,95.40
2019-03-06T20:28:03.469Z,95.70
2019-03-06T20:30:32.909Z,96.00
2019-03-06T20:33:02.021Z,96.20
2019-03-06T20:35:31.328Z,96.30
2019-03-06T20:38:00.878Z,96.40
2019-03-06T20:40:30.339Z,96.60
2019-03-06T20:43:00.084Z,96.90
2019-03-06T20:45:29.423Z,97.20
2019-03-06T20:47:58.502Z,97.30
2019-03-06T20:50:27.992Z,97.30
2019-03-06T20:52:58.288Z,97.30
2019-03-06T20:55:27.381Z,97.30
2019-03-06T20:57:56.926Z,97.30
2019-03-06T21:00:26.678Z,97.20
2019-03-06T21:02:55.856Z,97.10
2019-03-06T21:05:25.358Z,97.00
2019-03-06T21:07:54.937Z,97.00
2019-03-06T21:10:24.074Z,96.90
2019-03-06T21:12:53.557Z,96.80
2019-03-06T21:15:22.731Z,96.70
2019-03-06T21:17:52.556Z,96.60
2019-03-06T21:20:21.674Z,96.60
2019-03-06T21:22:50.769Z,96.50
2019-03-06T21:25:19.950Z,96.40
2019-03-06T21:27:49.651Z,96.40
2019-03-06T21:30:28.336Z,96.40
2019-03-06T21:32:57.327Z,96.30
2019-03-06T21:35:26.734Z,96.30
2019-03-06T21:37:56.407Z,96.40
2019-03-06T21:40:25.578Z,96.40
2019-03-06T21:42:54.691Z,96.50
2019-03-06T21:45:24.166Z,96.50
2019-03-06T21:47:53.199Z,96.60
2019-03-06T21:50:22.297Z,96.90
2019-03-06T21:52:51.789Z,97.00
2019-03-06T21:55:20.908Z,97.20
2019-03-06T21:57:50.964Z,97.30
2019-03-06T22:00:22.751Z,97.60
2019-03-06T22:02:51.939Z,97.90
2019-03-06T22:05:21.045Z,97.90
2019-03-06T22:07:51.258Z,98.30
2019-03-06T22:10:20.888Z,98.30
2019-03-06T22:12:51.383Z,98.30
2019-03-06T22:15:20.451Z,98.40
2019-03-06T22:17:49.598Z,98.10
2019-03-06T22:20:18.880Z,98.00
2019-03-06T22:22:48.007Z,97.90
2019-03-06T22:25:17.796Z,97.80
2019-03-06T22:27:47.038Z,97.70
2019-03-06T22:30:17.821Z,97.50
2019-03-06T22:32:46.906Z,97.40
2019-03-06T22:35:15.980Z,97.40
2019-03-06T22:37:45.199Z,97.40
2019-03-06T22:40:15.389Z,97.50
2019-03-06T22:42:44.578Z,97.40
2019-03-06T22:45:14.575Z,97.50
2019-03-06T22:47:43.594Z,97.50
2019-03-06T22:50:13.574Z,97.50
2019-03-06T22:52:42.655Z,97.50
2019-03-06T22:55:13.908Z,97.50
2019-03-06T22:57:43.276Z,97.50
2019-03-06T23:00:41.983Z,97.60
2019-03-06T23:03:11.661Z,97.60
2019-03-06T23:05:40.880Z,97.60
2019-03-06T23:08:10.075Z,98.00
2019-03-06T23:10:39.169Z,97.80
2019-03-06T23:13:08.481Z,97.90
2019-03-06T23:15:38.584Z,97.90
2019-03-06T23:18:07.668Z,97.90
2019-03-06T23:20:36.733Z,97.90
2019-03-06T23:23:05.983Z,98.00
2019-03-06T23:25:35.458Z,98.50
2019-03-06T23:28:05.400Z,98.80
2019-03-06T23:30:34.918Z,98.80
2019-03-06T23:33:04.005Z,99.10
2019-03-06T23:35:33.181Z,99.10
2019-03-06T23:38:02.675Z,99.40
2019-03-06T23:40:31.622Z,99.60
2019-03-06T23:43:00.759Z,99.60
2019-03-06T23:45:30.114Z,99.90
2019-03-06T23:47:59.253Z,99.90
2019-03-06T23:50:28.399Z,99.90
2019-03-06T23:53:02.378Z,99.90
2019-03-06T23:55:31.711Z,99.90
2019-03-06T23:58:01.112Z,99.90
